sensor_id;sensor_type;location;lat;lon;timestamp;pressure;altitude;pressure_sealevel;temperature;humidity
18533;BME280;9396;51.510;11.934;2023-05-03T00:01:18;101681.31;;;6.79;92.32
18533;BME280;9396;51.510;11.934;2023-05-03T00:03:45;101676.94;;;6.92;92.92
18533;BME280;9396;51.510;11.934;2023-05-03T00:06:14;101670.50;;;6.69;92.48
18533;BME280;9396;51.510;11.934;2023-05-03T00:08:41;101682.28;;;6.78;93.02
18533;BME280;9396;51.510;11.934;2023-05-03T00:11:09;101677.44;;;6.84;91.72
18533;BME280;9396;51.510;11.934;2023-05-03T00:13:36;101686.00;;;6.88;92.16
18533;BME280;9396;51.510;11.934;2023-05-03T00:16:03;101681.31;;;6.79;92.89
18533;BME280;9396;51.510;11.934;2023-05-03T00:18:29;101677.09;;;6.76;92.25
18533;BME280;9396;51.510;11.934;2023-05-03T00:20:57;101679.63;;;6.78;92.53
18533;BME280;9396;51.510;11.934;2023-05-03T00:23:24;101666.59;;;6.75;92.12
18533;BME280;9396;51.510;11.934;2023-05-03T00:25:51;101678.50;;;6.68;92.57
18533;BME280;9396;51.510;11.934;2023-05-03T00:28:20;101673.22;;;6.68;92.77
18533;BME280;9396;51.510;11.934;2023-05-03T00:30:47;101675.41;;;6.61;92.69
18533;BME280;9396;51.510;11.934;2023-05-03T00:33:14;101671.66;;;6.51;92.06
18533;BME280;9396;51.510;11.934;2023-05-03T00:35:41;101670.50;;;6.55;92.87
18533;BME280;9396;51.510;11.934;2023-05-03T00:38:07;101668.34;;;6.62;92.06
18533;BME280;9396;51.510;11.934;2023-05-03T00:40:34;101667.91;;;6.68;92.45
18533;BME280;9396;51.510;11.934;2023-05-03T00:43:01;101667.75;;;6.71;91.89
18533;BME280;9396;51.510;11.934;2023-05-03T00:45:31;101670.28;;;6.72;92.49
18533;BME280;9396;51.510;11.934;2023-05-03T00:47:59;101676.81;;;6.67;92.83
18533;BME280;9396;51.510;11.934;2023-05-03T00:50:25;101672.47;;;6.66;91.80
18533;BME280;9396;51.510;11.934;2023-05-03T00:52:52;101673.97;;;6.70;92.91
18533;BME280;9396;51.510;11.934;2023-05-03T00:55:19;101666.59;;;6.75;91.23
18533;BME280;9396;51.510;11.934;2023-05-03T00:57:47;101671.31;;;6.70;91.12
18533;BME280;9396;51.510;11.934;2023-05-03T01:00:14;101664.41;;;6.26;92.53
18533;BME280;9396;51.510;11.934;2023-05-03T01:02:43;101671.59;;;6.10;92.29
18533;BME280;9396;51.510;11.934;2023-05-03T01:05:10;101661.03;;;6.10;93.19
18533;BME280;9396;51.510;11.934;2023-05-03T01:07:43;101663.84;;;6.21;92.58
18533;BME280;9396;51.510;11.934;2023-05-03T01:10:20;101661.47;;;6.31;93.09
18533;BME280;9396;51.510;11.934;2023-05-03T01:12:54;101668.94;;;6.10;92.84
18533;BME280;9396;51.510;11.934;2023-05-03T01:15:30;101665.72;;;6.05;93.20
18533;BME280;9396;51.510;11.934;2023-05-03T01:18:06;101672.91;;;6.17;92.44
18533;BME280;9396;51.510;11.934;2023-05-03T01:20:36;101679.31;;;6.27;92.71
18533;BME280;9396;51.510;11.934;2023-05-03T01:23:09;101676.97;;;6.37;92.70
18533;BME280;9396;51.510;11.934;2023-05-03T01:25:38;101670.50;;;6.41;92.71
18533;BME280;9396;51.510;11.934;2023-05-03T01:28:06;101672.50;;;6.37;92.54
18533;BME280;9396;51.510;11.934;2023-05-03T01:30:33;101665.22;;;6.41;90.93
18533;BME280;9396;51.510;11.934;2023-05-03T01:33:03;101671.75;;;6.35;90.42
18533;BME280;9396;51.510;11.934;2023-05-03T01:35:35;101669.88;;;6.09;90.92
18533;BME280;9396;51.510;11.934;2023-05-03T01:38:03;101672.50;;;5.95;91.95
18533;BME280;9396;51.510;11.934;2023-05-03T01:40:33;101683.28;;;6.06;91.56
18533;BME280;9396;51.510;11.934;2023-05-03T01:43:03;101671.94;;;5.90;91.30
18533;BME280;9396;51.510;11.934;2023-05-03T01:45:30;101673.44;;;5.80;92.33
18533;BME280;9396;51.510;11.934;2023-05-03T01:47:56;101670.19;;;5.75;92.55
18533;BME280;9396;51.510;11.934;2023-05-03T01:50:23;101677.50;;;5.56;92.92
18533;BME280;9396;51.510;11.934;2023-05-03T01:52:50;101680.34;;;5.53;93.10
18533;BME280;9396;51.510;11.934;2023-05-03T01:55:17;101677.41;;;5.58;93.15
18533;BME280;9396;51.510;11.934;2023-05-03T01:57:44;101680.75;;;5.75;93.35
18533;BME280;9396;51.510;11.934;2023-05-03T02:00:13;101684.38;;;5.88;92.79
18533;BME280;9396;51.510;11.934;2023-05-03T02:02:40;101684.28;;;5.90;92.76
18533;BME280;9396;51.510;11.934;2023-05-03T02:05:08;101688.91;;;5.86;92.75
18533;BME280;9396;51.510;11.934;2023-05-03T02:07:35;101686.06;;;5.89;92.57
18533;BME280;9396;51.510;11.934;2023-05-03T02:10:02;101692.13;;;5.91;92.38
18533;BME280;9396;51.510;11.934;2023-05-03T02:12:29;101691.00;;;5.95;92.49
18533;BME280;9396;51.510;11.934;2023-05-03T02:14:56;101694.97;;;6.02;92.53
18533;BME280;9396;51.510;11.934;2023-05-03T02:17:24;101694.78;;;6.05;91.69
18533;BME280;9396;51.510;11.934;2023-05-03T02:19:51;101696.38;;;6.08;91.38
18533;BME280;9396;51.510;11.934;2023-05-03T02:22:18;101698.06;;;6.09;91.08
18533;BME280;9396;51.510;11.934;2023-05-03T02:24:45;101704.41;;;6.06;91.09
18533;BME280;9396;51.510;11.934;2023-05-03T02:27:12;101698.38;;;6.04;91.18
18533;BME280;9396;51.510;11.934;2023-05-03T02:29:39;101705.06;;;5.96;90.60
18533;BME280;9396;51.510;11.934;2023-05-03T02:32:05;101701.47;;;5.97;90.81
18533;BME280;9396;51.510;11.934;2023-05-03T02:34:33;101698.81;;;5.97;91.63
18533;BME280;9396;51.510;11.934;2023-05-03T02:37:00;101704.66;;;6.02;92.03
18533;BME280;9396;51.510;11.934;2023-05-03T02:39:27;101707.50;;;5.99;92.00
18533;BME280;9396;51.510;11.934;2023-05-03T02:41:54;101707.31;;;6.02;91.90
18533;BME280;9396;51.510;11.934;2023-05-03T02:44:20;101706.66;;;5.98;91.75
18533;BME280;9396;51.510;11.934;2023-05-03T02:46:47;101707.41;;;6.00;91.80
18533;BME280;9396;51.510;11.934;2023-05-03T02:49:14;101715.78;;;5.93;91.67
18533;BME280;9396;51.510;11.934;2023-05-03T02:51:42;101712.94;;;5.82;91.83
18533;BME280;9396;51.510;11.934;2023-05-03T02:54:09;101719.03;;;5.82;91.49
18533;BME280;9396;51.510;11.934;2023-05-03T02:56:35;101711.91;;;5.84;92.26
18533;BME280;9396;51.510;11.934;2023-05-03T02:59:02;101726.13;;;5.82;91.71
18533;BME280;9396;51.510;11.934;2023-05-03T03:01:29;101726.22;;;5.80;92.29
18533;BME280;9396;51.510;11.934;2023-05-03T03:03:56;101723.50;;;5.82;91.81
18533;BME280;9396;51.510;11.934;2023-05-03T03:06:22;101732.00;;;5.87;91.31
18533;BME280;9396;51.510;11.934;2023-05-03T03:08:50;101724.19;;;5.85;91.69
18533;BME280;9396;51.510;11.934;2023-05-03T03:11:17;101718.06;;;5.85;91.81
18533;BME280;9396;51.510;11.934;2023-05-03T03:13:44;101717.19;;;5.84;91.53
18533;BME280;9396;51.510;11.934;2023-05-03T03:16:10;101729.28;;;5.88;91.29
18533;BME280;9396;51.510;11.934;2023-05-03T03:18:37;101724.75;;;5.90;90.65
18533;BME280;9396;51.510;11.934;2023-05-03T03:21:04;101715.31;;;5.86;90.65
18533;BME280;9396;51.510;11.934;2023-05-03T03:23:31;101722.63;;;5.81;90.74
18533;BME280;9396;51.510;11.934;2023-05-03T03:25:59;101725.56;;;5.77;90.73
18533;BME280;9396;51.510;11.934;2023-05-03T03:28:25;101723.19;;;5.72;90.88
18533;BME280;9396;51.510;11.934;2023-05-03T03:30:52;101728.66;;;5.69;90.94
18533;BME280;9396;51.510;11.934;2023-05-03T03:33:19;101727.03;;;5.67;91.01
18533;BME280;9396;51.510;11.934;2023-05-03T03:35:46;101729.75;;;5.65;90.77
18533;BME280;9396;51.510;11.934;2023-05-03T03:38:13;101725.69;;;5.60;91.02
18533;BME280;9396;51.510;11.934;2023-05-03T03:40:39;101724.75;;;5.61;90.84
18533;BME280;9396;51.510;11.934;2023-05-03T03:43:07;101722.84;;;5.63;91.26
18533;BME280;9396;51.510;11.934;2023-05-03T03:45:34;101727.97;;;5.66;90.84
18533;BME280;9396;51.510;11.934;2023-05-03T03:48:01;101737.84;;;5.62;90.57
18533;BME280;9396;51.510;11.934;2023-05-03T03:50:27;101742.19;;;5.63;91.26
18533;BME280;9396;51.510;11.934;2023-05-03T03:52:54;101739.66;;;5.62;90.95
18533;BME280;9396;51.510;11.934;2023-05-03T03:55:21;101740.59;;;5.61;90.85
18533;BME280;9396;51.510;11.934;2023-05-03T03:57:47;101747.66;;;5.60;91.36
18533;BME280;9396;51.510;11.934;2023-05-03T04:00:15;101753.84;;;5.59;91.53
18533;BME280;9396;51.510;11.934;2023-05-03T04:02:42;101753.84;;;5.59;90.92
18533;BME280;9396;51.510;11.934;2023-05-03T04:05:09;101758.41;;;5.57;91.10
18533;BME280;9396;51.510;11.934;2023-05-03T04:07:35;101768.94;;;5.57;91.53
18533;BME280;9396;51.510;11.934;2023-05-03T04:10:02;101773.03;;;5.47;91.29
18533;BME280;9396;51.510;11.934;2023-05-03T04:12:29;101771.09;;;5.35;91.56
18533;BME280;9396;51.510;11.934;2023-05-03T04:14:56;101773.94;;;5.32;92.43
18533;BME280;9396;51.510;11.934;2023-05-03T04:17:24;101770.44;;;5.31;92.80
18533;BME280;9396;51.510;11.934;2023-05-03T04:19:51;101771.97;;;5.35;92.73
18533;BME280;9396;51.510;11.934;2023-05-03T04:22:17;101765.56;;;5.39;93.03
18533;BME280;9396;51.510;11.934;2023-05-03T04:24:44;101781.13;;;5.44;92.59
18533;BME280;9396;51.510;11.934;2023-05-03T04:27:12;101782.19;;;4.95;93.24
18533;BME280;9396;51.510;11.934;2023-05-03T04:29:39;101788.06;;;5.00;93.90
18533;BME280;9396;51.510;11.934;2023-05-03T04:32:06;101808.56;;;4.95;94.46
18533;BME280;9396;51.510;11.934;2023-05-03T04:34:35;101808.03;;;5.04;94.38
18533;BME280;9396;51.510;11.934;2023-05-03T04:37:02;101801.41;;;5.12;94.34
18533;BME280;9396;51.510;11.934;2023-05-03T04:39:29;101803.44;;;4.92;94.32
18533;BME280;9396;51.510;11.934;2023-05-03T04:41:57;101794.19;;;5.16;94.18
18533;BME280;9396;51.510;11.934;2023-05-03T04:44:23;101803.19;;;5.27;94.27
18533;BME280;9396;51.510;11.934;2023-05-03T04:46:50;101806.94;;;5.39;94.05
18533;BME280;9396;51.510;11.934;2023-05-03T04:49:17;101805.16;;;4.93;95.01
18533;BME280;9396;51.510;11.934;2023-05-03T04:51:44;101805.66;;;4.99;95.81
18533;BME280;9396;51.510;11.934;2023-05-03T04:54:11;101805.28;;;4.90;96.15
18533;BME280;9396;51.510;11.934;2023-05-03T04:56:38;101809.69;;;4.74;97.11
18533;BME280;9396;51.510;11.934;2023-05-03T04:59:04;101811.31;;;4.76;97.64
18533;BME280;9396;51.510;11.934;2023-05-03T05:01:31;101814.06;;;4.58;98.04
18533;BME280;9396;51.510;11.934;2023-05-03T05:03:58;101807.63;;;4.63;99.02
18533;BME280;9396;51.510;11.934;2023-05-03T05:06:25;101813.25;;;4.73;98.94
18533;BME280;9396;51.510;11.934;2023-05-03T05:08:53;101812.09;;;5.09;98.69
18533;BME280;9396;51.510;11.934;2023-05-03T05:11:19;101810.94;;;5.15;97.27
18533;BME280;9396;51.510;11.934;2023-05-03T05:13:46;101807.88;;;5.22;97.71
18533;BME280;9396;51.510;11.934;2023-05-03T05:16:13;101809.31;;;5.12;98.23
18533;BME280;9396;51.510;11.934;2023-05-03T05:18:39;101811.38;;;5.23;97.78
18533;BME280;9396;51.510;11.934;2023-05-03T05:21:06;101812.22;;;5.39;98.05
18533;BME280;9396;51.510;11.934;2023-05-03T05:23:33;101806.41;;;5.48;98.63
18533;BME280;9396;51.510;11.934;2023-05-03T05:26:01;101819.25;;;5.54;98.09
18533;BME280;9396;51.510;11.934;2023-05-03T05:28:28;101819.75;;;5.76;97.45
18533;BME280;9396;51.510;11.934;2023-05-03T05:30:55;101770.09;;;5.67;97.11
18533;BME280;9396;51.510;11.934;2023-05-03T05:33:22;101822.22;;;6.09;96.02
18533;BME280;9396;51.510;11.934;2023-05-03T05:35:49;101820.72;;;6.05;95.52
18533;BME280;9396;51.510;11.934;2023-05-03T05:38:16;101828.59;;;6.34;95.44
18533;BME280;9396;51.510;11.934;2023-05-03T05:40:42;101824.09;;;6.65;94.07
18533;BME280;9396;51.510;11.934;2023-05-03T05:43:10;101823.06;;;6.81;93.46
18533;BME280;9396;51.510;11.934;2023-05-03T05:45:37;101824.28;;;7.71;92.39
18533;BME280;9396;51.510;11.934;2023-05-03T05:48:04;101817.88;;;9.62;87.68
18533;BME280;9396;51.510;11.934;2023-05-03T05:50:32;101803.09;;;11.28;80.72
18533;BME280;9396;51.510;11.934;2023-05-03T05:52:59;101795.75;;;12.57;76.63
18533;BME280;9396;51.510;11.934;2023-05-03T05:55:26;101793.59;;;14.83;69.81
18533;BME280;9396;51.510;11.934;2023-05-03T05:57:52;101787.03;;;16.37;65.55
18533;BME280;9396;51.510;11.934;2023-05-03T06:00:21;101793.97;;;16.73;61.84
18533;BME280;9396;51.510;11.934;2023-05-03T06:02:48;101787.69;;;17.90;59.73
18533;BME280;9396;51.510;11.934;2023-05-03T06:05:15;101796.63;;;16.91;61.22
18533;BME280;9396;51.510;11.934;2023-05-03T06:07:42;101801.81;;;17.26;61.41
18533;BME280;9396;51.510;11.934;2023-05-03T06:10:09;101804.66;;;15.96;62.84
18533;BME280;9396;51.510;11.934;2023-05-03T06:12:36;101798.59;;;17.80;60.66
18533;BME280;9396;51.510;11.934;2023-05-03T06:15:03;101792.53;;;18.27;60.46
18533;BME280;9396;51.510;11.934;2023-05-03T06:17:31;101795.75;;;18.22;59.54
18533;BME280;9396;51.510;11.934;2023-05-03T06:19:58;101790.03;;;18.57;59.34
18533;BME280;9396;51.510;11.934;2023-05-03T06:22:24;101799.47;;;17.97;58.90
18533;BME280;9396;51.510;11.934;2023-05-03T06:24:51;101794.66;;;18.95;57.46
18533;BME280;9396;51.510;11.934;2023-05-03T06:27:18;101798.91;;;19.59;55.79
18533;BME280;9396;51.510;11.934;2023-05-03T06:29:45;101788.94;;;20.50;55.89
18533;BME280;9396;51.510;11.934;2023-05-03T06:32:14;101782.50;;;21.24;53.49
18533;BME280;9396;51.510;11.934;2023-05-03T06:34:42;101790.56;;;21.03;54.50
18533;BME280;9396;51.510;11.934;2023-05-03T06:37:08;101786.81;;;20.75;53.10
18533;BME280;9396;51.510;11.934;2023-05-03T06:39:35;101790.16;;;20.91;52.81
18533;BME280;9396;51.510;11.934;2023-05-03T06:42:02;101801.84;;;18.24;55.29
18533;BME280;9396;51.510;11.934;2023-05-03T06:44:28;101791.78;;;19.66;56.74
18533;BME280;9396;51.510;11.934;2023-05-03T06:46:55;101795.69;;;18.86;56.02
18533;BME280;9396;51.510;11.934;2023-05-03T06:49:22;101788.72;;;19.92;56.61
18533;BME280;9396;51.510;11.934;2023-05-03T06:51:50;101803.16;;;17.88;57.15
18533;BME280;9396;51.510;11.934;2023-05-03T06:54:16;101793.88;;;19.56;57.03
18533;BME280;9396;51.510;11.934;2023-05-03T06:56:44;101793.13;;;19.93;57.07
18533;BME280;9396;51.510;11.934;2023-05-03T06:59:11;101794.69;;;18.79;55.51
18533;BME280;9396;51.510;11.934;2023-05-03T07:01:38;101793.53;;;19.59;55.60
18533;BME280;9396;51.510;11.934;2023-05-03T07:04:04;101798.56;;;19.23;54.60
18533;BME280;9396;51.510;11.934;2023-05-03T07:06:31;101795.50;;;18.80;56.03
18533;BME280;9396;51.510;11.934;2023-05-03T07:08:59;101794.41;;;19.52;56.27
18533;BME280;9396;51.510;11.934;2023-05-03T07:11:26;101798.94;;;18.66;54.83
18533;BME280;9396;51.510;11.934;2023-05-03T07:13:53;101804.63;;;19.64;55.40
18533;BME280;9396;51.510;11.934;2023-05-03T07:16:20;101805.69;;;19.78;56.29
18533;BME280;9396;51.510;11.934;2023-05-03T07:18:48;101790.28;;;20.09;53.10
18533;BME280;9396;51.510;11.934;2023-05-03T07:21:15;101791.25;;;20.16;52.79
18533;BME280;9396;51.510;11.934;2023-05-03T07:23:42;101791.47;;;19.22;51.84
18533;BME280;9396;51.510;11.934;2023-05-03T07:26:11;101791.38;;;18.05;56.18
18533;BME280;9396;51.510;11.934;2023-05-03T07:28:37;101795.91;;;16.55;57.97
18533;BME280;9396;51.510;11.934;2023-05-03T07:31:04;101791.16;;;17.08;58.97
18533;BME280;9396;51.510;11.934;2023-05-03T07:33:33;101798.09;;;17.27;58.50
18533;BME280;9396;51.510;11.934;2023-05-03T07:35:59;101790.53;;;17.31;57.35
18533;BME280;9396;51.510;11.934;2023-05-03T07:38:26;101782.09;;;16.50;58.66
18533;BME280;9396;51.510;11.934;2023-05-03T07:40:52;101781.78;;;17.21;58.93
18533;BME280;9396;51.510;11.934;2023-05-03T07:43:20;101784.16;;;16.56;58.08
18533;BME280;9396;51.510;11.934;2023-05-03T07:45:48;101787.50;;;17.18;61.50
18533;BME280;9396;51.510;11.934;2023-05-03T07:48:14;101780.00;;;17.03;57.01
18533;BME280;9396;51.510;11.934;2023-05-03T07:50:41;101785.38;;;17.37;57.51
18533;BME280;9396;51.510;11.934;2023-05-03T07:53:08;101787.94;;;17.47;57.39
18533;BME280;9396;51.510;11.934;2023-05-03T07:55:35;101790.56;;;16.63;56.98
18533;BME280;9396;51.510;11.934;2023-05-03T07:58:02;101786.88;;;17.40;59.31
18533;BME280;9396;51.510;11.934;2023-05-03T08:00:30;101796.34;;;15.90;57.45
18533;BME280;9396;51.510;11.934;2023-05-03T08:02:57;101797.81;;;16.20;60.30
18533;BME280;9396;51.510;11.934;2023-05-03T08:05:23;101784.56;;;17.03;59.67
18533;BME280;9396;51.510;11.934;2023-05-03T08:07:50;101788.03;;;16.87;62.09
18533;BME280;9396;51.510;11.934;2023-05-03T08:10:17;101795.31;;;16.26;60.20
18533;BME280;9396;51.510;11.934;2023-05-03T08:12:44;101795.75;;;15.34;61.73
18533;BME280;9396;51.510;11.934;2023-05-03T08:15:11;101793.97;;;15.25;63.50
18533;BME280;9396;51.510;11.934;2023-05-03T08:17:43;101786.00;;;15.33;64.28
18533;BME280;9396;51.510;11.934;2023-05-03T08:20:11;101787.97;;;15.40;60.79
18533;BME280;9396;51.510;11.934;2023-05-03T08:22:38;101787.00;;;15.32;64.84
18533;BME280;9396;51.510;11.934;2023-05-03T08:25:06;101783.69;;;15.65;62.62
18533;BME280;9396;51.510;11.934;2023-05-03T08:27:32;101787.00;;;15.41;60.42
18533;BME280;9396;51.510;11.934;2023-05-03T08:29:59;101787.56;;;15.08;62.63
18533;BME280;9396;51.510;11.934;2023-05-03T08:32:26;101792.63;;;14.84;64.67
18533;BME280;9396;51.510;11.934;2023-05-03T08:34:56;101790.00;;;14.65;63.06
18533;BME280;9396;51.510;11.934;2023-05-03T08:37:23;101795.28;;;14.09;63.48
18533;BME280;9396;51.510;11.934;2023-05-03T08:39:50;101794.13;;;14.40;63.47
18533;BME280;9396;51.510;11.934;2023-05-03T08:42:16;101802.72;;;14.25;62.58
18533;BME280;9396;51.510;11.934;2023-05-03T08:44:44;101804.16;;;14.38;61.85
18533;BME280;9396;51.510;11.934;2023-05-03T08:47:13;101738.91;;;14.49;62.44
18533;BME280;9396;51.510;11.934;2023-05-03T08:49:40;101788.25;;;15.10;66.00
18533;BME280;9396;51.510;11.934;2023-05-03T08:52:09;101790.78;;;15.12;62.39
18533;BME280;9396;51.510;11.934;2023-05-03T08:54:36;101789.25;;;14.72;63.13
18533;BME280;9396;51.510;11.934;2023-05-03T08:57:03;101798.47;;;14.60;64.69
18533;BME280;9396;51.510;11.934;2023-05-03T08:59:33;101801.19;;;14.41;65.77
18533;BME280;9396;51.510;11.934;2023-05-03T09:02:11;101788.69;;;14.78;65.08
18533;BME280;9396;51.510;11.934;2023-05-03T09:04:39;101789.22;;;14.91;61.75
18533;BME280;9396;51.510;11.934;2023-05-03T09:07:06;101787.72;;;14.70;65.21
18533;BME280;9396;51.510;11.934;2023-05-03T09:09:35;101779.44;;;15.27;64.19
18533;BME280;9396;51.510;11.934;2023-05-03T09:12:02;101788.00;;;15.31;63.18
18533;BME280;9396;51.510;11.934;2023-05-03T09:14:29;101783.94;;;14.99;65.78
18533;BME280;9396;51.510;11.934;2023-05-03T09:17:13;101792.81;;;14.63;66.45
18533;BME280;9396;51.510;11.934;2023-05-03T09:19:50;101798.13;;;13.98;64.78
18533;BME280;9396;51.510;11.934;2023-05-03T09:22:17;101792.78;;;14.08;67.71
18533;BME280;9396;51.510;11.934;2023-05-03T09:24:51;101791.63;;;13.91;66.17
18533;BME280;9396;51.510;11.934;2023-05-03T09:27:19;101795.28;;;13.61;61.79
18533;BME280;9396;51.510;11.934;2023-05-03T09:29:47;101795.16;;;13.63;63.37
18533;BME280;9396;51.510;11.934;2023-05-03T09:32:14;101787.91;;;13.25;66.50
18533;BME280;9396;51.510;11.934;2023-05-03T09:34:42;101784.53;;;13.23;64.40
18533;BME280;9396;51.510;11.934;2023-05-03T09:37:09;101794.47;;;13.70;74.52
18533;BME280;9396;51.510;11.934;2023-05-03T09:39:39;101791.09;;;13.97;72.13
18533;BME280;9396;51.510;11.934;2023-05-03T09:42:12;101798.38;;;14.24;71.98
18533;BME280;9396;51.510;11.934;2023-05-03T09:44:40;101790.09;;;14.36;73.58
18533;BME280;9396;51.510;11.934;2023-05-03T09:47:07;101751.63;;;13.99;71.43
18533;BME280;9396;51.510;11.934;2023-05-03T09:49:34;101793.44;;;14.19;66.36
18533;BME280;9396;51.510;11.934;2023-05-03T09:52:01;101794.16;;;14.12;69.59
18533;BME280;9396;51.510;11.934;2023-05-03T09:54:29;101793.75;;;13.87;67.83
18533;BME280;9396;51.510;11.934;2023-05-03T09:56:56;101785.13;;;14.41;75.91
18533;BME280;9396;51.510;11.934;2023-05-03T09:59:25;101786.66;;;14.44;67.79
18533;BME280;9396;51.510;11.934;2023-05-03T10:01:55;101783.88;;;14.45;64.40
18533;BME280;9396;51.510;11.934;2023-05-03T10:04:24;101784.28;;;14.22;62.40
18533;BME280;9396;51.510;11.934;2023-05-03T10:06:52;101784.00;;;14.15;63.53
18533;BME280;9396;51.510;11.934;2023-05-03T10:09:27;101783.75;;;13.80;67.21
18533;BME280;9396;51.510;11.934;2023-05-03T10:11:58;101788.84;;;13.83;66.23
18533;BME280;9396;51.510;11.934;2023-05-03T10:14:27;101788.09;;;13.52;65.07
18533;BME280;9396;51.510;11.934;2023-05-03T10:16:58;101781.47;;;13.28;63.84
18533;BME280;9396;51.510;11.934;2023-05-03T10:19:29;101784.16;;;12.98;64.00
18533;BME280;9396;51.510;11.934;2023-05-03T10:22:03;101773.66;;;13.06;65.62
18533;BME280;9396;51.510;11.934;2023-05-03T10:24:31;101780.16;;;13.22;64.63
18533;BME280;9396;51.510;11.934;2023-05-03T10:26:58;101777.94;;;13.37;66.80
18533;BME280;9396;51.510;11.934;2023-05-03T10:29:45;101773.94;;;13.12;65.10
18533;BME280;9396;51.510;11.934;2023-05-03T10:32:30;101773.13;;;13.21;65.18
18533;BME280;9396;51.510;11.934;2023-05-03T10:34:59;101775.38;;;13.16;64.08
18533;BME280;9396;51.510;11.934;2023-05-03T10:37:26;101775.38;;;13.16;66.96
18533;BME280;9396;51.510;11.934;2023-05-03T10:39:53;101771.84;;;13.16;63.50
18533;BME280;9396;51.510;11.934;2023-05-03T10:42:21;101769.06;;;13.27;63.95
18533;BME280;9396;51.510;11.934;2023-05-03T10:44:53;101772.19;;;13.60;65.14
18533;BME280;9396;51.510;11.934;2023-05-03T10:47:21;101773.88;;;13.71;65.87
18533;BME280;9396;51.510;11.934;2023-05-03T10:52:48;101776.41;;;13.44;64.24
18533;BME280;9396;51.510;11.934;2023-05-03T10:55:16;101780.06;;;12.93;65.50
18533;BME280;9396;51.510;11.934;2023-05-03T10:57:44;101772.41;;;13.19;69.08
18533;BME280;9396;51.510;11.934;2023-05-03T11:00:17;101771.59;;;13.28;64.56
18533;BME280;9396;51.510;11.934;2023-05-03T11:03:06;101766.16;;;13.49;65.21
18533;BME280;9396;51.510;11.934;2023-05-03T11:05:35;101763.34;;;13.60;66.27
18533;BME280;9396;51.510;11.934;2023-05-03T11:08:10;101769.25;;;13.54;65.83
18533;BME280;9396;51.510;11.934;2023-05-03T11:10:37;101764.56;;;13.37;62.41
18533;BME280;9396;51.510;11.934;2023-05-03T11:13:13;101655.22;;;12.96;63.68
18533;BME280;9396;51.510;11.934;2023-05-03T11:15:40;101757.88;;;13.61;66.40
18533;BME280;9396;51.510;11.934;2023-05-03T11:18:08;101762.19;;;13.53;66.03
18533;BME280;9396;51.510;11.934;2023-05-03T11:20:36;101770.91;;;13.55;67.23
18533;BME280;9396;51.510;11.934;2023-05-03T11:23:03;101761.22;;;13.54;67.87
18533;BME280;9396;51.510;11.934;2023-05-03T11:25:31;101757.28;;;13.48;67.53
18533;BME280;9396;51.510;11.934;2023-05-03T11:27:58;101755.16;;;13.42;66.93
18533;BME280;9396;51.510;11.934;2023-05-03T11:30:27;101644.53;;;12.96;66.95
18533;BME280;9396;51.510;11.934;2023-05-03T11:32:53;101739.53;;;13.76;66.27
18533;BME280;9396;51.510;11.934;2023-05-03T11:35:20;101738.13;;;13.81;67.26
18533;BME280;9396;51.510;11.934;2023-05-03T11:37:48;101738.25;;;13.99;66.00
18533;BME280;9396;51.510;11.934;2023-05-03T11:40:16;101734.75;;;13.89;66.91
18533;BME280;9396;51.510;11.934;2023-05-03T11:42:52;101743.19;;;13.94;67.06
18533;BME280;9396;51.510;11.934;2023-05-03T11:45:21;101749.28;;;13.77;66.38
18533;BME280;9396;51.510;11.934;2023-05-03T11:47:50;101745.47;;;13.60;66.34
18533;BME280;9396;51.510;11.934;2023-05-03T11:50:18;101738.97;;;13.72;68.87
18533;BME280;9396;51.510;11.934;2023-05-03T11:52:45;101744.63;;;13.79;65.75
18533;BME280;9396;51.510;11.934;2023-05-03T11:55:12;101736.19;;;13.74;69.17
18533;BME280;9396;51.510;11.934;2023-05-03T11:57:38;101735.91;;;13.86;70.33
18533;BME280;9396;51.510;11.934;2023-05-03T12:00:10;101748.00;;;14.00;66.92
18533;BME280;9396;51.510;11.934;2023-05-03T12:02:39;101749.25;;;13.96;66.30
18533;BME280;9396;51.510;11.934;2023-05-03T12:05:08;101745.72;;;13.48;65.75
18533;BME280;9396;51.510;11.934;2023-05-03T12:07:35;101740.69;;;13.45;66.09
18533;BME280;9396;51.510;11.934;2023-05-03T12:10:12;101726.59;;;13.62;66.03
18533;BME280;9396;51.510;11.934;2023-05-03T12:12:40;101727.03;;;13.67;65.09
18533;BME280;9396;51.510;11.934;2023-05-03T12:15:26;101736.31;;;13.53;64.85
18533;BME280;9396;51.510;11.934;2023-05-03T12:17:55;101735.59;;;13.51;66.30
18533;BME280;9396;51.510;11.934;2023-05-03T12:20:24;101731.97;;;13.71;72.82
18533;BME280;9396;51.510;11.934;2023-05-03T12:22:54;101734.19;;;13.76;66.19
18533;BME280;9396;51.510;11.934;2023-05-03T12:25:21;101733.66;;;13.44;64.35
18533;BME280;9396;51.510;11.934;2023-05-03T12:27:48;101728.59;;;13.50;64.67
18533;BME280;9396;51.510;11.934;2023-05-03T12:30:14;101732.38;;;13.38;66.75
18533;BME280;9396;51.510;11.934;2023-05-03T12:32:41;101730.94;;;13.25;64.73
18533;BME280;9396;51.510;11.934;2023-05-03T12:35:08;101719.00;;;13.38;67.61
18533;BME280;9396;51.510;11.934;2023-05-03T12:37:36;101724.09;;;13.51;66.48
18533;BME280;9396;51.510;11.934;2023-05-03T12:40:03;101720.34;;;13.14;64.59
18533;BME280;9396;51.510;11.934;2023-05-03T12:42:30;101710.69;;;13.22;66.39
18533;BME280;9396;51.510;11.934;2023-05-03T12:44:57;101712.81;;;13.19;66.03
18533;BME280;9396;51.510;11.934;2023-05-03T12:47:23;101715.88;;;13.33;70.18
18533;BME280;9396;51.510;11.934;2023-05-03T12:49:51;101718.56;;;13.33;68.04
18533;BME280;9396;51.510;11.934;2023-05-03T12:52:18;101713.66;;;13.48;69.00
18533;BME280;9396;51.510;11.934;2023-05-03T12:54:46;101703.53;;;13.61;69.47
18533;BME280;9396;51.510;11.934;2023-05-03T12:57:13;101703.53;;;13.61;67.90
18533;BME280;9396;51.510;11.934;2023-05-03T12:59:40;101702.41;;;13.54;67.10
18533;BME280;9396;51.510;11.934;2023-05-03T13:02:08;101699.19;;;13.60;68.02